Date,TemperatureHighF,TemperatureAvgF,TemperatureLowF,DewpointHighF,DewpointAvgF,DewpointLowF,HumidityHigh,HumidityAvg,HumidityLow,PressureMaxIn,PressureMinIn,WindSpeedMaxMPH,WindSpeedAvgMPH,GustSpeedMaxMPH,PrecipitationSumIn
2013-1-1,61,53,48,52,48,44,91,83,62,30.16,29.96,18,3,18,0.00
2013-1-2,55,47,41,52,44,36,94,89,82,30.19,29.91,24,8,25,0.34
2013-1-3,43,41,34,38,36,31,90,82,74,30.26,30.13,27,7,27,0.07
2013-1-4,54,40,29,34,30,27,94,72,40,30.33,30.19,21,3,21,0.00
2013-1-5,53,39,26,36,29,22,87,68,39,30.40,30.25,14,3,14,0.00
2013-1-6,50,45,36,44,40,31,92,81,63,30.30,30.07,10,2,10,0.03
2013-1-7,54,45,38,44,37,34,92,73,54,30.46,30.13,28,7,28,0.00
2013-1-8,62,49,40,51,43,35,92,80,65,30.46,30.34,22,5,22,0.00
2013-1-9,70,56,42,57,51,40,95,83,63,30.44,30.36,10,2,10,0.00
2013-1-10,61,53,47,54,43,35,95,71,39,30.53,30.40,24,8,25,0.00
2013-1-11,73,58,48,61,53,40,95,83,64,30.45,30.14,19,5,19,0.11
2013-1-12,69,60,53,62,57,52,95,91,76,30.20,30.09,8,2,8,0.01
2013-1-13,70,62,55,62,58,54,96,89,73,30.19,29.94,8,3,8,0.00
2013-1-14,73,63,56,64,59,54,96,88,72,30.22,30.13,13,3,13,0.00
2013-1-15,68,57,52,60,55,51,96,91,75,30.20,30.07,9,3,0,0.15
2013-1-16,71,61,53,64,58,51,96,90,74,30.06,29.96,5,2,0,0.00
2013-1-17,71,55,42,63,53,41,96,92,75,29.99,29.80,17,4,0,0.00
2013-1-18,49,41,34,41,34,29,96,76,51,30.53,29.92,11,4,0,0.00
2013-1-19,60,45,32,47,38,28,93,77,59,30.50,30.18,6,2,0,0.00
2013-1-20,64,50,41,50,44,38,95,82,58,30.17,29.98,4,1,0,0.00
2013-1-21,65,52,37,51,43,34,88,74,57,30.07,29.87,6,2,0,0.00
2013-1-22,52,38,29,39,16,7,69,42,23,30.29,29.92,10,2,10,0.00
2013-1-23,44,33,27,32,14,3,78,49,25,30.39,30.14,12,4,12,0.00
2013-1-24,48,38,27,40,23,7,78,56,36,30.53,29.98,30,10,30,0.00
2013-1-25,41,31,23,32,22,8,95,71,45,30.53,30.09,16,6,16,0.20
2013-1-26,42,34,29,34,30,27,95,86,73,30.40,30.11,21,7,21,0.00
2013-1-27,44,35,29,37,29,21,99,80,47,30.58,30.38,26,7,26,0.03
2013-1-28,59,44,32,57,42,30,95,91,77,30.53,30.27,13,3,13,0.00
2013-1-29,78,60,51,70,55,48,95,86,65,30.27,30.13,10,2,10,0.02
2013-1-30,71,63,54,61,58,52,98,84,71,30.17,29.63,16,5,16,0.02
2013-1-31,66,54,43,61,38,23,90,57,28,30.08,29.50,20,7,20,0.26
2013-2-1,56,42,25,34,20,2,63,44,16,30.41,30.00,26,7,26,0.00
2013-2-2,48,34,24,33,20,-1,87,57,15,30.43,30.02,9,3,9,0.00
2013-2-3,55,43,32,41,32,27,90,69,40,30.05,29.84,16,4,16,0.00
2013-2-4,51,40,26,35,27,18,81,61,32,30.16,29.97,16,3,16,0.00
2013-2-5,62,50,41,45,39,34,83,68,38,30.06,29.90,10,3,10,0.00
2013-2-6,68,52,40,44,37,28,88,63,24,30.27,29.99,16,4,16,0.00
2013-2-7,61,52,45,54,45,40,93,78,58,30.29,29.86,41,13,41,2.55
2013-2-8,62,53,47,60,47,37,93,82,64,29.98,29.46,30,9,30,1.92
2013-2-9,54,45,31,37,21,-3,80,42,17,30.38,29.98,23,8,23,0.00
2013-2-10,57,42,27,43,31,22,85,68,36,30.50,30.33,17,4,17,0.00
2013-2-11,62,58,48,60,54,43,93,88,77,30.34,29.96,15,5,15,0.18
2013-2-12,66,57,52,56,48,26,93,74,26,30.08,29.95,14,3,14,0.07
2013-2-13,58,52,48,55,50,45,98,91,82,30.02,29.64,14,5,14,0.58
2013-2-14,54,46,40,47,39,36,98,78,55,30.11,29.79,19,4,19,0.00
2013-2-15,61,46,36,42,38,33,98,78,41,30.11,29.97,16,2,16,0.00
2013-2-16,55,42,34,44,38,32,98,85,65,29.97,29.68,22,7,22,0.08
2013-2-17,41,33,24,32,19,3,98,61,23,30.30,29.84,26,8,26,0.02
2013-2-18,51,37,20,36,18,2,77,50,15,30.47,30.30,14,3,14,0.00
2013-2-19,65,53,37,55,48,34,98,84,63,30.33,29.91,17,4,17,0.34
2013-2-20,60,47,35,44,26,-24,95,57,6,30.13,29.95,17,4,17,0.00
2013-2-21,58,43,32,36,29,15,87,61,20,30.27,30.09,19,5,19,0.00
2013-2-22,50,44,40,48,35,26,98,72,59,30.35,30.10,21,9,21,0.00
2013-2-23,61,53,48,60,53,48,98,98,98,30.10,29.82,14,3,14,0.83
2013-2-24,63,51,43,51,47,42,98,88,52,30.00,29.74,16,4,16,0.00
2013-2-25,46,43,39,44,34,30,98,73,59,30.20,30.00,23,11,23,0.00
2013-2-26,66,55,42,65,53,36,98,93,81,30.12,29.61,24,9,24,0.94
2013-2-27,61,53,48,56,47,41,98,80,52,29.81,29.62,14,4,14,0.00
2013-2-28,63,50,40,48,38,30,98,66,41,29.84,29.69,17,5,17,0.00
2013-3-1,59,45,33,38,31,26,82,60,37,29.90,29.81,15,4,15,0.00
2013-3-2,58,44,34,34,30,26,88,62,33,29.91,29.79,16,3,16,0.01
2013-3-3,51,39,31,30,25,21,80,60,34,29.94,29.82,10,2,10,0.00
2013-3-4,52,38,28,25,19,11,75,49,21,30.11,29.94,9,2,9,0.00
2013-3-5,63,48,31,55,38,23,89,68,38,30.26,29.66,8,2,8,0.02
2013-3-6,58,49,42,58,38,26,98,67,39,29.89,29.49,32,11,32,0.08
2013-3-7,57,46,40,33,30,27,68,53,34,30.17,29.89,28,10,28,0.00
2013-3-8,55,45,34,29,26,20,70,48,28,30.21,30.08,26,9,26,0.00
2013-3-9,63,48,36,34,30,28,81,53,28,30.30,30.20,21,7,21,0.00
2013-3-10,65,48,31,45,36,28,98,68,32,30.32,30.25,17,4,17,0.00
2013-3-11,71,58,44,55,50,43,98,77,49,30.29,30.00,13,4,13,0.00
2013-3-12,67,60,54,64,58,54,98,93,81,30.01,29.78,19,4,19,1.23
2013-3-13,72,54,45,57,40,26,98,60,26,30.06,29.87,19,6,19,0.00
2013-3-14,54,44,34,30,22,14,70,43,21,30.22,30.06,23,8,23,0.00
2013-3-15,58,47,30,45,30,14,75,54,23,30.21,29.98,15,5,15,0.00
2013-3-16,66,58,53,53,50,45,83,73,57,29.98,29.75,13,7,13,0.00
2013-3-17,64,54,48,53,48,42,98,80,63,30.16,29.86,18,7,18,0.00
2013-3-18,70,55,48,56,50,44,98,83,57,30.15,29.90,19,5,19,0.00
2013-3-19,72,58,49,57,53,45,98,85,44,29.97,29.75,15,3,15,0.49
2013-3-20,62,51,41,45,24,5,86,40,12,30.12,29.81,14,3,14,0.00
2013-3-21,60,44,34,36,30,14,88,61,29,29.94,29.68,14,3,14,0.00
2013-3-22,51,39,27,34,20,10,67,48,24,30.09,29.94,13,3,13,0.00
2013-3-23,60,47,36,39,32,23,85,59,27,30.06,29.86,7,1,7,0.00
2013-3-24,58,49,40,57,48,37,98,95,65,29.97,29.42,27,7,27,0.48
2013-3-25,55,46,40,45,39,27,98,76,49,30.01,29.48,15,4,15,0.00
2013-3-26,54,44,34,33,29,25,73,57,35,30.23,29.81,13,2,13,0.00
2013-3-27,60,45,34,33,28,20,79,54,24,30.29,30.08,13,3,13,0.00
2013-3-28,60,45,33,32,26,9,72,52,24,30.27,30.15,14,2,14,0.00
2013-3-29,61,47,34,41,32,23,82,59,25,30.33,30.18,16,3,16,0.00
2013-3-30,67,53,44,47,43,38,93,71,40,30.26,30.07,8,1,8,0.00
2013-3-31,67,56,45,58,51,42,98,84,64,30.16,29.78,15,5,15,0.04
2013-4-1,67,59,53,60,57,29,98,93,76,29.90,29.74,8,3,8,0.02
2013-4-2,63,53,47,53,41,31,98,66,33,30.16,29.86,16,5,16,0.00
2013-4-3,58,49,44,46,38,31,98,68,37,30.31,30.05,17,4,17,0.00
2013-4-4,61,51,43,61,43,32,98,76,53,30.34,29.67,19,7,19,1.92
2013-4-5,61,52,44,61,49,24,98,88,71,30.16,29.62,12,4,12,0.13
2013-4-6,62,50,40,47,41,35,98,74,41,30.32,29.93,19,6,19,0.00
2013-4-7,74,57,44,56,50,41,98,79,52,30.31,30.05,13,3,13,0.00
2013-4-8,75,64,55,61,58,52,98,82,60,30.23,30.00,10,4,10,0.00
2013-4-9,76,66,59,64,62,59,98,86,66,30.24,30.01,13,4,13,0.01
2013-4-10,80,66,60,65,62,60,98,87,56,30.17,29.89,13,6,13,0.00
2013-4-11,80,69,60,68,65,60,98,88,66,30.05,29.77,15,5,15,0.00
2013-4-12,74,67,64,71,66,64,98,97,87,29.91,29.58,20,6,20,1.01
2013-4-13,71,62,49,64,54,47,98,77,51,30.05,29.64,28,7,28,0.00
2013-4-14,77,62,47,62,52,47,98,74,38,30.14,29.92,12,2,12,0.08
2013-4-15,74,65,59,64,61,56,98,86,65,30.21,29.87,20,6,20,0.62
2013-4-16,79,68,60,67,62,57,98,83,54,30.29,30.07,17,5,17,0.00
2013-4-17,81,67,54,68,60,54,98,82,54,30.26,30.03,10,1,10,0.00
2013-4-18,81,68,58,70,62,57,98,82,55,30.24,29.97,9,2,9,0.00
2013-4-19,79,71,66,74,69,66,98,93,77,30.11,29.76,16,6,16,0.12
2013-4-20,71,60,52,70,56,46,98,86,73,30.27,29.74,20,7,20,1.78
2013-4-21,63,55,46,50,44,35,98,68,48,30.47,30.13,42,16,42,0.00
2013-4-22,56,54,50,56,51,45,98,92,83,30.43,29.99,30,15,30,0.30
2013-4-23,65,57,49,56,53,49,98,88,65,30.19,29.93,22,10,22,0.00
2013-4-24,75,60,46,65,56,45,98,87,59,30.22,29.90,10,3,10,0.00
2013-4-25,72,62,52,67,58,48,98,86,68,30.30,29.91,25,7,25,0.07
2013-4-26,70,59,46,54,43,26,98,63,22,30.42,30.11,30,8,30,0.00
2013-4-27,73,62,52,56,48,34,98,65,26,30.40,30.13,19,6,19,0.00
2013-4-28,75,64,50,59,48,25,98,60,18,30.31,29.98,12,2,12,0.00
2013-4-29,69,64,62,67,62,57,98,92,79,30.15,29.83,8,1,8,0.75
2013-4-30,78,67,61,67,62,54,98,85,51,30.13,29.83,17,5,17,0.00
2013-5-1,74,66,60,70,62,59,98,90,69,30.27,29.93,21,9,21,0.08
2013-5-2,71,64,60,65,61,56,98,90,64,30.29,30.05,23,12,23,0.12
2013-5-3,70,62,57,63,55,48,98,78,55,30.23,29.98,37,16,37,0.00
2013-5-4,66,58,55,60,56,52,98,94,73,30.16,29.88,29,14,29,0.26
2013-5-5,73,64,56,68,61,56,98,91,74,30.12,29.81,21,10,21,0.08
2013-5-6,75,66,61,67,64,61,98,92,68,30.01,29.71,13,4,13,0.52
2013-5-7,76,63,54,69,58,54,98,87,57,29.99,29.71,8,2,8,0.01
2013-5-8,79,65,53,69,59,52,98,82,50,30.05,29.80,9,2,9,0.00
2013-5-9,84,70,62,66,63,57,98,81,52,30.10,29.82,9,2,9,0.00
2013-5-10,86,70,60,73,65,60,98,86,52,30.11,29.87,7,1,7,0.00
2013-5-11,83,73,68,72,69,66,98,88,67,30.05,29.69,12,4,12,0.00
2013-5-12,81,72,65,70,65,50,98,79,56,29.98,29.62,16,3,16,0.00
2013-5-13,71,63,50,53,45,34,79,52,30,30.15,29.82,23,8,23,0.00
2013-5-14,73,61,46,50,40,21,85,50,17,30.26,29.99,18,5,18,0.00
2013-5-15,80,69,61,64,60,50,86,73,54,30.17,29.80,13,4,13,0.00
2013-5-16,82,73,65,68,66,62,91,79,60,30.01,29.76,10,4,10,0.00
2013-5-17,86,74,68,70,67,63,98,81,53,30.15,29.82,14,1,14,0.01
2013-5-18,86,74,65,75,69,64,98,84,63,30.20,29.96,7,1,7,0.00
2013-5-19,84,74,66,74,68,65,98,82,60,30.19,29.96,7,1,7,0.00
2013-5-20,84,75,68,72,69,66,98,82,60,30.18,29.92,9,2,9,0.00
2013-5-21,84,75,70,73,70,67,98,85,63,30.10,29.86,7,2,7,0.00
2013-5-22,87,76,72,73,72,66,98,88,62,30.08,29.84,7,2,7,0.00
2013-5-23,81,74,71,75,72,69,98,96,77,30.03,29.69,7,1,7,1.17
2013-5-24,84,72,60,72,63,45,98,74,44,30.14,29.61,23,4,23,0.00
2013-5-25,76,61,51,50,42,32,84,53,24,30.25,29.97,19,6,19,0.00
2013-5-26,77,66,54,60,55,47,98,70,40,30.24,29.99,20,2,20,0.00
2013-5-27,84,67,52,67,55,39,98,70,28,30.30,30.05,9,2,9,0.00
2013-5-28,88,73,64,70,66,60,98,80,48,30.30,30.05,8,2,8,0.00
2013-5-29,89,75,66,74,68,63,98,79,51,30.30,30.05,9,2,9,0.00
2013-5-30,90,75,64,75,69,63,98,82,51,30.31,30.07,7,2,7,0.01
2013-5-31,80,76,69,75,72,69,98,89,76,30.26,30.00,8,3,8,0.00
2013-6-1,81,76,72,74,72,71,98,88,75,30.20,29.94,7,3,7,0.00
2013-6-2,81,77,74,75,72,71,98,86,75,30.12,29.82,9,4,9,0.00
2013-6-3,82,75,70,77,73,70,98,94,82,30.01,29.72,13,4,13,0.49
2013-6-4,84,75,70,74,70,65,98,85,65,30.11,29.75,21,5,21,0.01
2013-6-5,80,73,68,66,64,58,88,73,52,30.13,29.88,12,3,12,0.00
2013-6-6,82,76,69,75,71,65,98,86,66,30.08,29.71,13,3,13,0.07
2013-6-7,85,77,73,79,74,71,98,90,75,29.90,29.46,25,8,25,0.58
2013-6-8,87,78,75,78,76,73,98,92,73,30.13,29.71,14,6,14,0.02
2013-6-9,82,78,75,79,76,71,98,94,80,30.18,29.95,9,4,9,0.00
2013-6-10,82,78,73,78,76,73,98,93,82,30.17,29.84,10,6,10,0.00
2013-6-11,82,78,74,77,75,72,98,91,80,30.03,29.73,12,6,12,0.00
2013-6-12,85,79,72,79,74,70,98,87,65,29.99,29.73,9,3,9,0.00
2013-6-13,85,80,72,81,77,66,98,91,60,29.90,29.47,23,6,23,0.02
2013-6-14,82,74,68,72,63,56,98,72,45,30.02,29.52,23,7,23,0.33
2013-6-15,80,71,60,65,61,58,98,72,51,30.13,29.86,9,3,9,0.00
2013-6-16,81,77,73,71,68,64,87,74,64,30.17,29.90,10,5,10,0.00
2013-6-17,81,77,75,74,71,61,88,81,74,30.10,29.83,8,5,8,0.00
2013-6-18,84,78,72,80,75,71,98,93,81,30.02,29.65,12,4,12,0.27
2013-6-19,78,73,69,77,71,66,98,92,77,30.11,29.68,20,7,20,1.28
2013-6-20,84,75,68,72,66,52,98,76,35,30.21,29.91,28,12,28,0.00
2013-6-21,86,76,69,75,72,65,98,86,66,30.21,29.99,23,8,23,0.00
2013-6-22,82,75,72,77,74,71,98,95,81,30.21,30.00,12,1,12,0.74
2013-6-23,87,79,73,82,76,71,98,90,69,30.21,30.01,10,2,10,0.06
2013-6-24,87,79,75,81,77,74,98,92,76,30.21,29.96,12,3,12,0.24
2013-6-25,86,79,74,80,77,60,98,93,55,30.21,29.87,10,4,10,0.02
2013-6-26,83,79,76,79,77,75,98,94,83,30.21,29.78,12,4,12,0.09
2013-6-27,83,79,75,81,77,72,98,94,82,29.97,29.63,12,7,12,0.00
2013-6-28,88,81,77,81,78,73,98,93,76,29.83,29.49,22,7,22,0.07
2013-6-29,86,81,78,79,78,74,98,90,77,29.81,29.49,15,8,15,0.00
2013-6-30,83,78,73,81,77,61,98,97,85,29.94,29.63,14,5,14,1.70
2013-7-1,85,77,75,79,76,75,98,97,80,30.09,29.74,9,5,9,0.16
2013-7-2,92,80,74,80,75,70,98,87,63,30.25,29.92,15,3,15,0.05
2013-7-3,96,81,75,84,76,67,98,87,54,30.29,30.05,10,2,10,0.24
2013-7-4,91,81,75,80,76,70,98,86,62,30.31,30.09,9,3,9,0.00
2013-7-5,84,80,77,79,77,75,98,90,81,30.32,30.06,7,2,7,0.00
2013-7-6,84,80,78,78,76,73,98,87,75,30.28,30.01,7,2,7,0.00
2013-7-7,84,80,77,76,74,72,91,83,74,30.22,29.96,8,4,8,0.00
2013-7-8,84,80,77,77,75,73,98,84,75,30.21,29.97,8,4,8,0.00
2013-7-9,83,80,78,80,78,74,98,93,81,30.21,29.97,9,3,9,0.00
2013-7-10,84,81,78,79,78,76,98,91,80,30.16,29.85,9,4,9,0.00
2013-7-11,91,81,76,83,77,72,98,89,71,30.05,29.75,13,5,13,0.08
2013-7-12,83,77,72,82,76,71,98,98,91,30.01,29.73,12,2,12,2.43
2013-7-13,90,79,73,83,76,71,98,92,67,30.21,29.83,15,3,15,0.22
2013-7-14,92,81,76,85,78,72,98,92,65,30.29,30.04,14,3,14,0.03
2013-7-15,86,80,75,82,78,75,98,95,81,30.30,30.08,7,1,7,0.00
2013-7-16,88,81,74,82,77,71,98,89,58,30.27,30.04,8,2,8,0.00
2013-7-17,93,83,75,82,76,44,98,81,49,30.20,29.94,20,4,20,0.01
2013-7-18,99,82,76,81,74,70,100,79,58,30.18,29.91,7,2,7,1.51
2013-7-19,94,83,79,81,78,74,98,84,69,30.18,29.88,10,4,10,0.00
2013-7-20,93,82,78,83,78,74,100,87,69,30.12,29.82,10,6,10,0.30
2013-7-21,88,82,78,83,80,72,100,93,77,30.06,29.78,10,5,10,0.12
2013-7-22,87,83,80,84,81,78,100,94,78,30.00,29.72,9,4,9,0.02
2013-7-23,89,82,81,83,77,70,100,84,62,29.91,29.59,11,5,11,0.04
2013-7-24,92,84,80,82,78,68,98,84,52,29.85,29.58,8,3,8,0.00
2013-7-25,88,82,78,78,72,65,89,74,50,30.00,29.61,15,4,15,0.10
2013-7-26,90,79,74,74,68,53,91,72,34,30.12,29.83,18,4,18,0.00
2013-7-27,89,79,68,80,71,40,98,78,43,30.06,29.81,14,3,14,0.03
2013-7-28,85,81,77,83,76,66,95,84,56,30.03,29.91,9,4,9,0.42
2013-7-29,86,80,74,83,77,68,99,89,75,30.15,29.85,28,3,28,0.78
2013-7-30,91,78,75,78,74,71,90,85,74,30.24,29.97,13,1,13,0.30
2013-7-31,85,81,74,77,67,59,98,65,47,30.18,29.88,13,3,13,0.00
2013-8-1,83,80,73,78,73,62,98,80,52,30.06,29.73,12,3,12,1.16
2013-8-2,89,83,79,76,73,66,85,72,53,30.09,29.74,10,4,10,0.00
2013-8-3,88,84,80,79,74,66,98,71,50,30.12,29.77,9,5,9,0.00
2013-8-4,91,80,69,83,71,62,98,76,47,30.00,29.71,24,3,24,0.53
2013-8-5,88,75,64,73,62,48,98,67,46,29.98,29.84,18,3,18,0.00
2013-8-6,87,76,67,80,66,55,98,72,59,30.09,29.84,13,2,13,0.00
2013-8-7,87,77,70,75,71,66,92,82,69,30.15,29.89,12,2,12,0.00
2013-8-8,90,81,76,79,76,59,98,85,65,30.12,29.85,7,2,7,0.05
2013-8-9,89,82,80,86,78,76,98,87,70,30.15,29.88,12,5,12,0.00
2013-8-10,91,82,77,86,78,74,98,88,78,30.15,29.86,12,5,12,0.00
2013-8-11,92,81,76,81,77,74,98,89,78,30.15,29.86,8,3,8,0.00
2013-8-12,96,82,77,82,78,74,94,88,78,30.09,29.78,10,3,10,0.00
2013-8-13,89,81,74,82,78,72,96,92,85,29.97,29.63,12,5,12,1.01
2013-8-14,81,75,70,79,70,60,98,86,70,30.06,29.63,21,5,21,0.40
2013-8-15,71,68,66,68,65,60,98,92,68,30.12,29.88,17,8,17,1.19
2013-8-16,77,71,69,70,69,67,98,93,86,30.15,29.87,16,6,16,0.00
2013-8-17,82,74,69,75,72,66,98,95,87,30.18,29.88,11,0,11,0.68
2013-8-18,84,77,72,81,74,71,98,90,67,30.21,29.95,8,2,8,0.01
2013-8-19,84,76,73,78,75,72,98,95,75,30.17,30.09,16,5,16,0.35
2013-8-20,84,77,73,76,73,72,98,88,68,30.18,30.09,17,4,17,0.00
2013-8-21,86,79,72,79,75,72,98,88,68,30.31,30.09,12,1,12,0.00
2013-8-22,86,78,72,79,75,70,95,90,85,30.21,29.97,7,0,7,0.00
2013-8-23,84,78,72,79,75,69,98,91,72,30.03,29.91,15,2,15,0.12
2013-8-24,80,74,70,72,69,45,98,84,65,30.24,30.00,18,5,18,0.24
2013-8-25,79,73,68,68,65,63,87,76,66,30.33,30.23,15,4,15,0.00
2013-8-26,80,72,66,68,64,55,95,79,46,30.28,30.13,10,3,10,0.00
2013-8-27,80,73,64,69,66,62,96,79,59,30.15,29.98,10,3,10,0.00
2013-8-28,81,78,75,77,73,68,94,87,78,30.02,29.91,10,3,10,0.01
2013-8-29,84,78,73,78,75,71,98,89,77,29.99,29.84,18,2,18,0.70
2013-8-30,82,76,70,75,72,70,98,88,72,30.03,29.96,10,2,10,0.00
2013-8-31,83,77,71,77,74,70,98,91,75,30.00,29.91,8,2,8,0.00
2013-9-1,84,80,77,80,78,76,98,93,87,29.96,29.85,12,4,12,0.00
2013-9-2,82,81,73,81,79,70,98,94,92,30.18,29.83,12,6,12,2.12
2013-9-3,83,78,73,79,76,72,98,93,82,29.94,29.82,12,3,12,0.99
2013-9-4,81,76,70,77,74,69,98,93,82,30.08,29.92,7,1,7,0.01
2013-9-5,83,76,72,78,75,72,98,95,84,30.08,30.01,10,1,10,0.00
2013-9-6,81,75,70,76,72,66,98,89,79,30.11,30.02,10,2,10,0.20
2013-9-7,78,72,66,67,63,58,91,75,53,30.09,29.99,10,2,10,0.00
2013-9-8,80,72,64,72,67,62,97,85,72,30.01,29.90,10,1,10,0.00
2013-9-9,83,76,70,75,71,68,97,85,65,30.15,29.99,7,1,7,0.00
2013-9-10,85,77,71,73,71,66,96,82,58,30.23,30.14,8,1,8,0.00
2013-9-11,83,75,70,73,70,68,96,85,62,30.21,30.09,8,1,8,0.00
2013-9-12,81,76,69,74,71,68,98,86,73,30.11,29.83,8,3,8,0.00
2013-9-13,84,79,71,74,71,64,94,76,51,29.93,29.72,21,5,21,0.25
2013-9-14,79,72,67,68,65,62,95,80,65,30.11,29.82,28,11,28,0.04
2013-9-15,81,72,66,66,64,62,95,77,54,30.22,30.11,21,6,21,0.00
2013-9-16,82,72,66,75,70,65,98,91,65,30.16,30.03,12,1,12,0.66
2013-9-17,76,69,64,66,62,54,90,76,66,30.26,30.12,25,8,25,0.00
2013-9-18,77,68,59,64,58,55,94,73,54,30.25,30.15,21,10,21,0.00
2013-9-19,78,67,58,62,58,56,98,76,49,30.18,30.08,21,5,21,0.00
2013-9-20,79,70,63,65,62,56,98,78,48,30.10,29.98,15,2,15,0.00
2013-9-21,81,73,63,71,68,62,98,86,68,29.99,29.76,10,1,10,0.00
2013-9-22,81,73,69,75,69,62,98,88,70,29.82,29.66,28,8,28,0.57
2013-9-23,74,67,57,64,58,54,94,73,53,30.08,29.82,28,10,28,0.00
2013-9-24,75,62,52,58,54,52,98,78,52,30.10,29.96,21,4,21,0.00
2013-9-25,74,65,53,60,58,53,98,80,60,29.97,29.85,17,6,17,0.00
2013-9-26,77,68,62,66,62,60,95,81,60,29.97,29.84,22,9,22,0.15
2013-9-27,75,69,64,63,60,54,93,74,53,30.11,29.95,36,14,36,0.00
2013-9-28,76,69,62,64,61,59,92,77,60,30.16,30.08,29,13,29,0.00
2013-9-29,77,70,60,66,63,59,94,79,62,30.12,29.98,20,9,20,0.00
2013-9-30,76,65,58,63,59,56,97,82,59,30.07,29.97,21,6,21,0.00
2013-10-1,78,64,53,62,57,52,98,79,47,30.12,30.03,17,4,17,0.00
2013-10-2,81,68,58,68,62,57,98,81,53,30.14,30.05,12,2,12,0.00
2013-10-3,81,71,62,70,66,59,98,85,50,30.16,30.10,12,2,12,0.00
2013-10-4,82,71,62,72,66,62,98,85,54,30.16,30.08,8,1,8,0.00
2013-10-5,82,72,66,69,66,29,98,81,52,30.12,30.06,6,1,6,0.00
2013-10-6,82,73,66,73,69,65,98,88,69,30.09,29.98,7,0,7,0.00
2013-10-7,82,78,75,73,72,67,92,81,62,30.00,29.87,10,3,10,0.00
2013-10-8,76,66,64,72,65,62,98,96,88,30.06,29.90,33,17,33,2.65
2013-10-9,68,65,62,66,64,62,98,97,93,30.05,29.85,37,19,37,1.32
2013-10-10,66,62,60,63,61,59,98,95,87,29.89,29.82,28,15,28,0.00
2013-10-11,68,63,60,63,61,59,98,93,83,30.14,29.84,18,8,18,0.02
2013-10-12,71,66,63,66,64,62,98,92,81,30.03,29.92,12,4,12,0.00
2013-10-13,79,72,65,70,67,65,98,86,74,30.10,30.01,22,6,22,0.14
2013-10-14,75,70,67,68,66,63,91,87,80,30.13,30.04,29,15,29,0.04
2013-10-15,72,67,64,67,64,61,93,90,81,30.10,29.97,24,12,24,0.00
2013-10-16,74,69,67,68,66,65,98,90,81,30.00,29.93,20,8,20,0.00
2013-10-17,83,69,60,68,65,60,98,86,57,29.98,29.75,12,4,12,0.00
2013-10-18,78,71,67,69,67,63,98,88,63,30.01,29.76,15,5,15,0.04
2013-10-19,80,70,66,72,70,65,99,98,98,29.99,29.72,8,1,8,0.44
2013-10-20,72,70,57,72,69,54,98,95,65,30.04,29.74,12,1,0,0.00
2013-10-21,70,63,55,60,57,50,94,83,56,30.04,29.88,8,3,8,0.00
2013-10-22,70,63,58,62,59,53,98,87,67,29.99,29.71,9,2,9,0.03
2013-10-23,75,63,53,63,57,44,99,85,50,29.93,29.52,24,5,24,0.49
2013-10-24,63,50,42,44,39,34,97,68,36,30.17,29.82,25,7,25,0.00
2013-10-25,59,48,38,44,37,30,98,67,36,30.34,30.05,28,8,28,0.00
2013-10-26,66,48,37,47,40,36,96,77,48,30.34,29.99,16,5,16,0.00
2013-10-27,72,53,44,49,43,36,99,70,42,30.16,29.94,16,2,16,0.00
2013-10-28,74,57,45,60,50,44,99,82,42,30.26,30.05,9,0,9,0.00
2013-10-29,76,60,49,58,53,49,99,80,53,30.43,30.11,13,2,13,0.00
2013-10-30,77,61,54,61,56,52,97,83,55,30.36,30.07,10,1,10,0.00
2013-10-31,70,64,55,68,62,53,98,94,85,30.27,29.88,13,1,13,0.01
2013-11-1,77,72,67,73,70,66,98,94,83,30.04,29.63,16,6,16,0.07
2013-11-2,73,65,56,72,63,56,98,95,81,29.87,29.55,16,4,16,1.37
2013-11-3,66,56,51,59,46,39,98,69,41,30.32,29.74,28,11,28,0.00
2013-11-4,59,52,46,49,42,35,92,68,50,30.48,30.21,34,13,34,0.00
2013-11-5,74,61,51,66,53,49,93,76,49,30.48,30.26,28,12,28,0.00
2013-11-6,67,63,59,65,61,55,99,94,84,30.44,29.99,22,8,22,0.20
2013-11-7,70,65,56,69,63,40,99,94,53,30.18,29.76,18,0,18,0.12
2013-11-8,59,50,37,41,35,29,99,58,38,30.36,29.88,24,7,24,0.00
2013-11-9,68,49,35,52,43,35,99,83,46,30.26,30.08,8,1,0,0.00
2013-11-10,73,60,50,54,47,39,95,66,39,30.10,29.95,8,1,0,0.00
2013-11-11,64,51,40,45,42,37,99,72,49,30.19,30.03,8,3,0,0.00
2013-11-12,68,49,36,56,38,27,99,71,36,30.33,29.88,29,5,29,0.00
2013-11-13,47,36,28,32,24,19,98,63,36,30.49,30.22,43,13,43,0.00
2013-11-14,64,40,25,33,26,15,95,64,29,30.51,30.23,18,1,18,0.00
2013-11-15,66,52,38,58,45,27,94,77,41,30.41,30.23,7,1,8,0.26
2013-11-16,78,64,58,65,60,56,99,89,63,30.27,30.05,16,5,16,0.05
2013-11-17,84,64,62,67,62,56,98,95,82,30.27,29.83,12,6,12,0.04
2013-11-18,80,68,58,70,65,49,99,92,72,30.09,29.64,14,4,18,3.29
2013-11-19,66,52,45,48,36,32,76,56,39,30.26,29.75,33,11,33,0.14
2013-11-20,60,51,44,49,44,38,89,78,62,30.37,30.13,34,14,34,0.00
2013-11-21,64,57,52,60,55,49,98,94,82,30.43,30.24,23,8,23,0.06
2013-11-22,73,60,51,63,58,51,99,91,67,30.39,29.97,10,3,10,0.00
2013-11-23,67,58,50,63,56,38,98,95,65,30.11,29.88,26,6,26,0.12
2013-11-24,50,38,30,38,18,9,91,45,29,30.52,29.97,30,15,30,0.00
2013-11-25,47,35,27,36,22,12,91,60,43,30.57,30.26,21,9,21,0.00
2013-11-26,65,55,39,64,53,36,99,93,76,30.39,29.54,21,5,21,1.13
2013-11-27,68,55,35,68,38,-8,99,72,11,30.07,29.28,31,10,31,0.61
2013-11-28,49,35,29,30,25,20,95,70,40,30.52,29.80,26,9,26,0.00
2013-11-29,57,43,33,34,32,26,91,65,38,30.48,30.37,21,10,21,0.00
2013-11-30,59,46,38,46,41,32,96,82,63,30.46,30.21,29,12,29,0.00
2013-12-1,60,50,43,52,47,42,99,92,73,30.23,29.90,15,5,15,0.01
2013-12-2,56,50,45,50,47,42,99,89,75,29.90,29.67,17,7,17,0.00
2013-12-3,64,48,37,48,41,34,99,79,40,30.03,29.74,9,3,9,0.00
2013-12-4,66,57,49,64,57,48,99,98,95,30.12,29.92,13,1,13,0.54
2013-12-5,78,61,50,69,60,49,99,96,74,30.18,29.99,8,2,8,0.00
2013-12-6,77,68,63,69,66,62,99,94,72,30.16,29.96,12,5,12,0.00
2013-12-7,67,54,43,67,54,42,99,98,91,30.40,29.97,32,12,32,0.76
2013-12-8,49,44,43,47,44,42,99,98,92,30.39,30.15,28,13,28,0.14
2013-12-9,70,55,44,65,54,44,99,96,82,30.24,29.98,10,4,10,0.00
2013-12-10,67,55,38,65,54,37,99,97,90,30.31,29.75,28,7,28,0.14
2013-12-11,56,38,30,50,31,24,98,79,40,30.46,30.21,18,4,18,0.00
2013-12-12,50,38,27,33,29,24,98,74,42,30.39,30.24,28,6,28,0.00
2013-12-13,52,36,24,32,28,22,98,77,40,30.43,30.30,14,2,14,0.00
2013-12-14,67,52,31,64,48,31,98,87,55,30.34,29.75,24,6,24,2.42
2013-12-15,62,54,41,61,51,37,98,93,74,30.05,29.68,22,6,22,0.14
2013-12-16,54,42,34,40,35,31,98,78,44,30.20,30.05,28,6,28,0.00
2013-12-17,61,50,35,51,44,35,98,82,56,30.19,29.95,20,5,20,0.00
2013-12-18,55,43,28,48,30,24,96,63,40,30.32,29.97,36,8,36,0.00
2013-12-19,59,43,28,46,37,27,98,83,48,30.36,30.27,16,2,16,0.00
2013-12-20,69,54,41,62,52,40,98,93,74,30.28,30.16,9,1,9,0.00
2013-12-21,71,62,54,67,61,50,98,96,85,30.20,30.12,9,2,9,0.00
2013-12-22,73,67,63,70,66,62,98,96,85,30.16,30.10,14,5,14,0.94
2013-12-23,73,67,60,70,66,60,98,96,82,30.14,30.02,16,7,16,0.14
2013-12-24,60,45,36,60,41,28,98,86,66,30.39,30.02,28,12,28,0.31
2013-12-25,46,38,31,37,31,24,90,75,61,30.51,30.36,25,12,25,0.00
2013-12-26,62,43,40,60,41,37,98,94,66,30.36,30.22,21,8,21,0.03
2013-12-27,53,43,35,40,36,31,98,79,46,30.42,30.30,24,8,24,0.17
2013-12-28,62,47,33,44,37,32,98,72,40,30.41,30.17,20,6,20,0.00
2013-12-29,66,60,50,64,59,43,98,94,76,30.17,29.72,22,7,22,0.35
2013-12-30,60,50,41,52,48,41,98,91,64,30.11,29.91,15,4,15,0.00
2013-12-31,54,47,35,46,39,31,98,75,46,30.36,30.08,24,7,24,0.00
2014-1-1,54,43,31,47,38,30,98,84,55,30.42,30.14,14,4,14,0.05
2014-1-2,60,50,47,59,50,46,98,98,98,30.14,29.50,34,4,34,0.90